createdAt,value
2022-12-28T00:02:16.306Z,6.37
2022-12-28T00:04:43.084Z,6.42
2022-12-28T00:07:09.843Z,6.54
2022-12-28T00:09:36.414Z,6.50
2022-12-28T00:12:03.218Z,6.44
2022-12-28T00:14:29.883Z,6.50
2022-12-28T00:16:59.234Z,6.59
2022-12-28T00:19:25.777Z,6.68
2022-12-28T00:21:53.594Z,6.78
2022-12-28T00:24:22.226Z,6.83
2022-12-28T00:26:49.283Z,6.83
2022-12-28T00:29:16.492Z,6.85
2022-12-28T00:31:43.254Z,6.86
2022-12-28T00:34:10.310Z,6.87
2022-12-28T00:37:09.011Z,6.84
2022-12-28T00:39:23.474Z,6.71
2022-12-28T00:41:49.961Z,6.73
2022-12-28T00:44:16.644Z,6.83
2022-12-28T00:46:43.331Z,6.88
2022-12-28T00:49:11.441Z,6.89
2022-12-28T00:51:38.005Z,6.77
2022-12-28T00:54:04.787Z,6.71
2022-12-28T00:56:31.860Z,6.62
2022-12-28T00:58:58.781Z,6.61
2022-12-28T01:01:26.171Z,6.60
2022-12-28T01:03:54.943Z,6.73
2022-12-28T01:06:21.559Z,6.69
2022-12-28T01:08:48.556Z,6.61
2022-12-28T01:11:25.483Z,6.62
2022-12-28T01:13:54.239Z,6.59
2022-12-28T01:16:22.442Z,6.63
2022-12-28T01:18:51.939Z,6.81
2022-12-28T01:21:21.082Z,6.93
2022-12-28T01:23:48.345Z,7.07
2022-12-28T01:26:15.400Z,7.16
2022-12-28T01:28:42.365Z,7.21
2022-12-28T01:31:10.348Z,7.23
2022-12-28T01:33:38.152Z,7.21
2022-12-28T01:36:08.541Z,7.19
2022-12-28T01:38:37.347Z,7.25
2022-12-28T01:41:07.140Z,7.25
2022-12-28T01:43:45.577Z,7.31
2022-12-28T01:46:20.589Z,7.31
2022-12-28T01:48:57.304Z,7.28
2022-12-28T01:51:25.053Z,7.28
2022-12-28T01:53:53.954Z,7.28
2022-12-28T01:56:22.016Z,7.19
2022-12-28T01:58:49.306Z,7.26
2022-12-28T02:01:17.657Z,7.30
2022-12-28T02:03:44.325Z,7.18
2022-12-28T02:06:12.658Z,7.19
2022-12-28T02:09:04.003Z,7.15
2022-12-28T02:11:31.283Z,7.22
2022-12-28T02:13:58.780Z,7.34
2022-12-28T02:16:25.614Z,7.41
2022-12-28T02:18:52.576Z,7.45
2022-12-28T02:21:23.869Z,7.39
2022-12-28T02:23:50.342Z,7.30
2022-12-28T02:26:23.075Z,7.26
2022-12-28T02:29:07.973Z,7.28
2022-12-28T02:31:46.626Z,7.35
2022-12-28T02:34:13.203Z,7.41
2022-12-28T02:36:43.373Z,7.37
2022-12-28T02:39:13.936Z,7.33
2022-12-28T02:41:42.078Z,7.27
2022-12-28T02:44:09.305Z,7.23
2022-12-28T02:46:54.561Z,7.21
2022-12-28T02:49:41.521Z,7.25
2022-12-28T02:52:12.073Z,7.39
2022-12-28T02:55:35.938Z,7.49
2022-12-28T02:58:14.757Z,7.62
2022-12-28T03:00:50.507Z,7.68
2022-12-28T03:03:20.179Z,7.65
2022-12-28T03:06:08.776Z,7.62
2022-12-28T03:08:38.295Z,7.65
2022-12-28T03:11:08.369Z,7.49
2022-12-28T03:13:46.864Z,7.41
2022-12-28T03:16:20.715Z,7.46
2022-12-28T03:19:08.945Z,7.60
2022-12-28T03:21:55.195Z,7.67
2022-12-28T03:24:41.417Z,7.56
2022-12-28T03:27:30.352Z,7.60
2022-12-28T03:30:23.851Z,7.54
2022-12-28T03:32:50.754Z,7.51
2022-12-28T03:35:19.609Z,7.49
2022-12-28T03:37:58.188Z,7.47
2022-12-28T03:40:31.089Z,7.36
2022-12-28T03:43:19.300Z,7.45
2022-12-28T03:45:47.446Z,7.47
2022-12-28T03:48:17.330Z,7.53
2022-12-28T03:50:47.049Z,7.50
2022-12-28T03:53:20.402Z,7.47
2022-12-28T03:55:49.118Z,7.46
2022-12-28T03:58:18.723Z,7.39
2022-12-28T04:00:45.496Z,7.44
2022-12-28T04:03:14.906Z,7.52
2022-12-28T04:05:44.835Z,7.55
2022-12-28T04:08:11.570Z,7.45
2022-12-28T04:10:38.126Z,7.51
2022-12-28T04:13:04.767Z,7.53
2022-12-28T04:16:00.912Z,7.62
2022-12-28T04:18:30.220Z,7.73
2022-12-28T04:20:57.620Z,7.74
2022-12-28T04:23:24.681Z,7.72
2022-12-28T04:26:02.042Z,7.79
2022-12-28T04:28:29.141Z,7.87
2022-12-28T04:31:14.445Z,7.87
2022-12-28T04:33:48.300Z,7.88
2022-12-28T04:36:15.949Z,7.92
2022-12-28T04:38:44.113Z,7.97
2022-12-28T04:41:11.019Z,7.87
2022-12-28T04:43:37.827Z,7.90
2022-12-28T04:46:05.863Z,7.91
2022-12-28T04:48:32.852Z,7.81
2022-12-28T04:51:05.687Z,7.72
2022-12-28T04:53:32.304Z,7.73
2022-12-28T04:56:02.905Z,7.72
2022-12-28T04:58:29.660Z,7.71
2022-12-28T05:01:02.276Z,7.75
2022-12-28T05:03:28.927Z,7.83
2022-12-28T05:05:59.374Z,7.84
2022-12-28T05:08:26.240Z,7.79
2022-12-28T05:10:52.811Z,7.76
2022-12-28T05:13:19.349Z,7.79
2022-12-28T05:15:45.956Z,7.70
2022-12-28T05:18:12.520Z,7.72
2022-12-28T05:20:39.009Z,7.77
2022-12-28T05:23:05.557Z,7.81
2022-12-28T05:25:32.166Z,7.87
2022-12-28T05:27:58.787Z,7.84
2022-12-28T05:30:25.393Z,7.73
2022-12-28T05:32:51.855Z,7.70
2022-12-28T05:35:18.357Z,7.57
2022-12-28T05:37:44.884Z,7.44
2022-12-28T05:40:11.926Z,7.42
2022-12-28T05:42:38.512Z,7.46
2022-12-28T05:45:05.376Z,7.48
2022-12-28T05:47:32.183Z,7.38
2022-12-28T05:49:58.735Z,7.35
2022-12-28T05:52:25.294Z,7.37
2022-12-28T05:54:55.955Z,7.51
2022-12-28T05:57:22.518Z,7.46
2022-12-28T05:59:49.266Z,7.53
2022-12-28T06:02:20.280Z,7.64
2022-12-28T06:04:49.871Z,7.69
2022-12-28T06:07:16.354Z,7.66
2022-12-28T06:09:43.028Z,7.66
2022-12-28T06:12:09.580Z,7.65
2022-12-28T06:14:36.161Z,7.66
2022-12-28T06:17:02.727Z,7.48
2022-12-28T06:19:29.236Z,7.47
2022-12-28T06:21:55.903Z,7.45
2022-12-28T06:24:22.378Z,7.48
2022-12-28T06:26:51.126Z,7.64
2022-12-28T06:29:17.970Z,7.61
2022-12-28T06:31:47.091Z,7.48
2022-12-28T06:34:13.774Z,7.51
2022-12-28T06:36:42.167Z,7.49
2022-12-28T06:39:12.707Z,7.49
2022-12-28T06:41:40.052Z,7.45
2022-12-28T06:44:08.083Z,7.50
2022-12-28T06:46:35.427Z,7.58
2022-12-28T06:49:02.356Z,7.66
2022-12-28T06:51:30.010Z,7.66
2022-12-28T06:53:56.823Z,7.65
2022-12-28T06:56:28.314Z,7.74
2022-12-28T06:59:00.533Z,7.72
2022-12-28T07:01:33.520Z,7.71
2022-12-28T07:04:00.902Z,7.75
2022-12-28T07:06:28.256Z,7.75
2022-12-28T07:09:01.883Z,7.63
2022-12-28T07:11:29.292Z,7.62
2022-12-28T07:13:56.408Z,7.65
2022-12-28T07:16:23.870Z,7.57
2022-12-28T07:18:50.566Z,7.53
2022-12-28T07:21:18.364Z,7.60
2022-12-28T07:23:45.035Z,7.72
2022-12-28T07:26:12.873Z,7.77
2022-12-28T07:28:40.438Z,7.81
2022-12-28T07:31:08.274Z,7.81
2022-12-28T07:33:35.947Z,7.79
2022-12-28T07:36:03.312Z,7.78
2022-12-28T07:38:30.041Z,7.79
2022-12-28T07:41:04.460Z,7.76
2022-12-28T07:43:31.073Z,7.78
2022-12-28T07:46:01.630Z,7.83
2022-12-28T07:48:29.213Z,7.94
2022-12-28T07:50:55.817Z,7.99
2022-12-28T07:53:22.455Z,7.98
2022-12-28T07:55:58.996Z,7.87
2022-12-28T07:58:25.725Z,7.91
2022-12-28T08:00:52.322Z,7.99
2022-12-28T08:03:19.629Z,8.05
2022-12-28T08:05:46.217Z,8.07
2022-12-28T08:08:12.862Z,8.04
2022-12-28T08:10:39.487Z,8.12
2022-12-28T08:13:06.172Z,8.18
2022-12-28T08:15:32.794Z,8.18
2022-12-28T08:17:59.539Z,8.22
2022-12-28T08:20:26.241Z,8.27
2022-12-28T08:22:53.416Z,8.29
2022-12-28T08:25:19.980Z,8.36
2022-12-28T08:27:46.912Z,8.41
2022-12-28T08:30:16.702Z,8.49
2022-12-28T08:32:46.159Z,8.52
2022-12-28T08:35:12.814Z,8.65
2022-12-28T08:37:42.756Z,8.69
2022-12-28T08:40:12.403Z,8.68
2022-12-28T08:42:39.329Z,8.72
2022-12-28T08:45:06.170Z,8.73
2022-12-28T08:47:32.883Z,8.74
2022-12-28T08:50:00.880Z,8.76
2022-12-28T08:52:27.671Z,8.70
2022-12-28T08:54:54.223Z,8.63
2022-12-28T08:57:21.180Z,8.63
2022-12-28T08:59:47.986Z,8.50
2022-12-28T09:02:14.920Z,8.47
2022-12-28T09:04:42.013Z,8.47
2022-12-28T09:07:08.674Z,8.43
2022-12-28T09:09:35.338Z,8.54
2022-12-28T09:12:01.997Z,8.65
2022-12-28T09:14:28.564Z,8.74
2022-12-28T09:16:55.388Z,8.86
2022-12-28T09:19:22.738Z,8.99
2022-12-28T09:21:52.389Z,9.13
2022-12-28T09:24:19.204Z,9.16
2022-12-28T09:26:45.898Z,9.13
2022-12-28T09:29:13.854Z,9.14
2022-12-28T09:31:41.473Z,9.08
2022-12-28T09:36:57.971Z,9.08
2022-12-28T09:39:25.181Z,9.16
2022-12-28T09:42:10.581Z,9.21
2022-12-28T09:44:37.105Z,9.25
2022-12-28T09:47:23.234Z,9.34
2022-12-28T09:49:58.120Z,9.50
2022-12-28T09:52:35.490Z,9.51
2022-12-28T09:55:13.693Z,9.50
2022-12-28T09:57:44.978Z,9.46
2022-12-28T10:00:19.594Z,9.55
2022-12-28T10:02:50.942Z,9.64
2022-12-28T10:05:17.665Z,9.69
2022-12-28T10:07:44.279Z,9.72
2022-12-28T10:10:16.198Z,9.58
2022-12-28T10:12:43.791Z,9.63
2022-12-28T10:15:12.334Z,9.75
2022-12-28T10:17:39.121Z,10.08
2022-12-28T10:20:08.014Z,10.29
2022-12-28T10:22:43.525Z,10.48
2022-12-28T10:25:14.348Z,10.70
2022-12-28T10:27:40.935Z,10.87
2022-12-28T10:30:14.477Z,10.91
2022-12-28T10:33:02.961Z,11.07
2022-12-28T10:35:36.081Z,11.12
2022-12-28T10:38:04.363Z,11.31
2022-12-28T10:40:32.985Z,11.52
2022-12-28T10:43:02.105Z,11.69
2022-12-28T10:45:32.162Z,11.79
2022-12-28T10:47:58.781Z,11.91
2022-12-28T10:50:40.150Z,11.93
2022-12-28T10:53:26.489Z,11.78
2022-12-28T10:56:12.017Z,11.75
2022-12-28T10:58:43.714Z,11.98
2022-12-28T11:01:13.414Z,11.98
2022-12-28T11:03:44.675Z,12.10
2022-12-28T11:06:18.655Z,12.05
2022-12-28T11:08:59.406Z,11.90
2022-12-28T11:11:26.311Z,11.77
2022-12-28T11:14:00.364Z,11.93
2022-12-28T11:16:30.165Z,12.08
2022-12-28T11:18:57.754Z,11.98
2022-12-28T11:21:25.631Z,11.81
2022-12-28T11:23:53.203Z,11.76
2022-12-28T11:26:20.516Z,11.74
2022-12-28T11:28:49.439Z,11.85
2022-12-28T11:31:38.753Z,11.97
2022-12-28T11:34:07.581Z,12.04
2022-12-28T11:36:38.878Z,12.24
2022-12-28T11:39:24.520Z,12.37
2022-12-28T11:44:50.299Z,12.22
2022-12-28T11:47:16.807Z,12.22
2022-12-28T11:49:47.448Z,12.24
2022-12-28T11:52:17.178Z,12.15
2022-12-28T11:54:58.043Z,12.09
2022-12-28T11:57:38.382Z,11.95
2022-12-28T12:00:31.246Z,11.94
2022-12-28T12:03:02.157Z,11.86
2022-12-28T12:05:38.227Z,11.75
2022-12-28T12:08:17.114Z,11.77
2022-12-28T12:10:44.672Z,11.75
2022-12-28T12:13:26.362Z,11.83
2022-12-28T12:15:52.851Z,12.02
2022-12-28T12:18:22.104Z,12.15
2022-12-28T12:20:53.777Z,12.29
2022-12-28T12:23:36.420Z,12.50
2022-12-28T12:26:21.851Z,12.62
2022-12-28T12:28:50.103Z,12.67
2022-12-28T12:31:23.037Z,12.54
2022-12-28T12:33:51.330Z,12.38
2022-12-28T12:36:26.973Z,12.29
2022-12-28T12:38:59.471Z,12.19
2022-12-28T12:41:38.895Z,12.15
2022-12-28T12:44:22.903Z,12.07
2022-12-28T12:47:05.889Z,12.01
2022-12-28T12:49:32.796Z,12.01
2022-12-28T12:52:14.573Z,12.05
2022-12-28T12:54:41.083Z,12.06
2022-12-28T12:57:16.916Z,12.06
2022-12-28T12:59:59.274Z,11.95
2022-12-28T13:02:26.019Z,11.89
2022-12-28T13:04:52.768Z,11.89
2022-12-28T13:07:24.039Z,11.92
2022-12-28T13:09:51.847Z,11.92
2022-12-28T13:12:19.535Z,11.87
2022-12-28T13:14:54.455Z,11.83
2022-12-28T13:17:21.669Z,11.70
2022-12-28T13:19:48.390Z,11.68
2022-12-28T13:22:31.839Z,11.71
2022-12-28T13:25:01.098Z,11.74
2022-12-28T13:27:32.304Z,11.65
2022-12-28T13:30:00.444Z,11.61
2022-12-28T13:32:37.545Z,11.61
2022-12-28T13:35:16.504Z,11.54
2022-12-28T13:37:43.079Z,11.54
2022-12-28T13:40:10.807Z,11.54
2022-12-28T13:42:53.252Z,11.58
2022-12-28T13:45:20.803Z,11.61
2022-12-28T13:47:49.271Z,11.58
2022-12-28T13:50:21.007Z,11.55
2022-12-28T13:52:51.780Z,11.50
2022-12-28T13:55:20.562Z,11.58
2022-12-28T13:57:54.145Z,11.58
2022-12-28T14:00:22.956Z,11.57
2022-12-28T14:02:50.587Z,11.56
2022-12-28T14:05:18.649Z,11.52
2022-12-28T14:07:46.017Z,11.47
2022-12-28T14:10:13.272Z,11.47
2022-12-28T14:12:40.356Z,11.44
2022-12-28T14:15:08.399Z,11.49
2022-12-28T14:17:37.622Z,11.43
2022-12-28T14:20:04.965Z,11.39
2022-12-28T14:22:36.122Z,11.37
2022-12-28T14:25:10.928Z,11.41
2022-12-28T14:27:42.751Z,11.43
2022-12-28T14:30:26.753Z,11.41
2022-12-28T14:32:54.210Z,11.31
2022-12-28T14:35:22.998Z,11.38
2022-12-28T14:37:51.324Z,11.47
2022-12-28T14:40:23.441Z,11.48
2022-12-28T14:42:50.473Z,11.46
2022-12-28T14:46:05.456Z,11.49
2022-12-28T14:48:30.048Z,11.49
2022-12-28T14:50:57.340Z,11.51
2022-12-28T14:53:25.007Z,11.47
2022-12-28T14:56:11.273Z,11.49
2022-12-28T14:58:50.963Z,11.46
2022-12-28T15:01:18.023Z,11.40
2022-12-28T15:03:52.427Z,11.34
2022-12-28T15:06:20.392Z,11.25
2022-12-28T15:08:47.811Z,11.24
2022-12-28T15:11:14.465Z,11.14
2022-12-28T15:13:41.454Z,11.09
2022-12-28T15:16:10.945Z,11.07
2022-12-28T15:18:38.678Z,11.03
2022-12-28T15:21:05.599Z,10.99
2022-12-28T15:23:33.322Z,10.97
2022-12-28T15:26:05.746Z,11.04
2022-12-28T15:28:32.487Z,11.07
2022-12-28T15:30:59.077Z,11.07
2022-12-28T15:33:25.815Z,11.02
2022-12-28T15:35:52.552Z,11.02
2022-12-28T15:38:19.141Z,11.01
2022-12-28T15:40:47.076Z,10.88
2022-12-28T15:43:13.688Z,10.81
2022-12-28T15:45:40.297Z,10.80
2022-12-28T15:48:07.208Z,10.69
2022-12-28T15:50:33.776Z,10.65
2022-12-28T15:53:00.328Z,10.71
2022-12-28T15:55:26.822Z,10.82
2022-12-28T15:57:54.812Z,10.89
2022-12-28T16:00:21.461Z,10.91
2022-12-28T16:02:48.292Z,10.92
2022-12-28T16:05:15.006Z,10.96
2022-12-28T16:07:41.616Z,10.94
2022-12-28T16:10:08.439Z,10.86
2022-12-28T16:12:35.117Z,10.85
2022-12-28T16:15:01.684Z,10.83
2022-12-28T16:17:28.308Z,10.80
2022-12-28T16:19:54.796Z,10.83
2022-12-28T16:22:21.279Z,10.85
2022-12-28T16:24:48.750Z,10.84
2022-12-28T16:27:15.423Z,10.79
2022-12-28T16:29:41.967Z,10.82
2022-12-28T16:32:08.677Z,10.80
2022-12-28T16:34:35.216Z,10.82
2022-12-28T16:37:01.775Z,10.81
2022-12-28T16:39:29.111Z,10.79
2022-12-28T16:41:56.374Z,10.80
2022-12-28T16:44:24.112Z,10.80
2022-12-28T16:46:51.190Z,10.74
2022-12-28T16:49:18.123Z,10.73
2022-12-28T16:51:45.681Z,10.70
2022-12-28T16:54:14.289Z,10.65
2022-12-28T16:56:41.028Z,10.67
2022-12-28T16:59:07.525Z,10.70
2022-12-28T17:01:34.055Z,10.77
2022-12-28T17:04:04.181Z,10.75
2022-12-28T17:06:31.272Z,10.73
2022-12-28T17:09:00.078Z,10.72
2022-12-28T17:11:26.743Z,10.79
2022-12-28T17:13:53.268Z,10.80
2022-12-28T17:16:19.915Z,10.77
2022-12-28T17:18:46.407Z,10.77
2022-12-28T17:21:12.896Z,10.79
2022-12-28T17:23:40.248Z,10.76
2022-12-28T17:26:07.168Z,10.80
2022-12-28T17:28:33.731Z,10.71
2022-12-28T17:31:11.419Z,10.60
2022-12-28T17:33:40.062Z,10.66
2022-12-28T17:36:07.432Z,10.65
2022-12-28T17:38:33.920Z,10.70
2022-12-28T17:41:00.406Z,10.70
2022-12-28T17:43:26.986Z,10.68
2022-12-28T17:45:53.584Z,10.67
2022-12-28T17:48:20.271Z,10.65
2022-12-28T17:50:47.145Z,10.63
2022-12-28T17:53:13.935Z,10.57
2022-12-28T17:55:40.461Z,10.62
2022-12-28T17:58:06.955Z,10.65
2022-12-28T18:00:33.565Z,10.64
2022-12-28T18:03:01.397Z,10.73
2022-12-28T18:05:30.226Z,10.80
2022-12-28T18:07:56.824Z,10.83
2022-12-28T18:10:23.308Z,10.82
2022-12-28T18:12:50.606Z,10.82
2022-12-28T18:15:17.284Z,10.84
2022-12-28T18:17:43.830Z,10.85
2022-12-28T18:20:10.294Z,10.85
2022-12-28T18:22:36.803Z,10.81
2022-12-28T18:25:03.412Z,10.73
2022-12-28T18:27:30.156Z,10.67
2022-12-28T18:29:56.797Z,10.62
2022-12-28T18:32:23.368Z,10.57
2022-12-28T18:34:50.090Z,10.59
2022-12-28T18:37:16.574Z,10.61
2022-12-28T18:39:43.087Z,10.64
2022-12-28T18:42:09.563Z,10.66
2022-12-28T18:44:36.058Z,10.72
2022-12-28T18:47:02.490Z,10.72
2022-12-28T18:49:30.267Z,10.67
2022-12-28T18:51:57.049Z,10.63
2022-12-28T18:54:23.960Z,10.69
2022-12-28T18:56:50.521Z,10.74
2022-12-28T18:59:17.064Z,10.82
2022-12-28T19:04:30.746Z,10.85
2022-12-28T19:06:57.380Z,10.85
2022-12-28T19:09:23.922Z,10.81
2022-12-28T19:11:50.435Z,10.83
2022-12-28T19:14:17.143Z,10.83
2022-12-28T19:16:45.108Z,10.80
2022-12-28T19:19:12.126Z,10.81
2022-12-28T19:21:42.195Z,10.74
2022-12-28T19:24:18.690Z,10.71
2022-12-28T19:26:46.102Z,10.64
2022-12-28T19:29:13.067Z,10.65
2022-12-28T19:31:39.730Z,10.67
2022-12-28T19:34:06.315Z,10.67
2022-12-28T19:36:32.922Z,10.64
2022-12-28T19:38:59.558Z,10.55
2022-12-28T19:41:26.171Z,10.47
2022-12-28T19:43:53.049Z,10.52
2022-12-28T19:46:20.775Z,10.52
2022-12-28T19:48:47.375Z,10.51
2022-12-28T19:51:14.726Z,10.49
2022-12-28T19:53:41.326Z,10.40
2022-12-28T19:56:08.782Z,10.36
2022-12-28T19:58:36.073Z,10.38
2022-12-28T20:01:07.070Z,10.42
2022-12-28T20:03:34.126Z,10.45
2022-12-28T20:06:08.568Z,10.38
2022-12-28T20:08:35.433Z,10.43
2022-12-28T20:11:03.398Z,10.50
2022-12-28T20:13:30.596Z,10.51
2022-12-28T20:15:57.392Z,10.56
2022-12-28T20:18:24.139Z,10.54
2022-12-28T20:21:18.657Z,10.49
2022-12-28T20:23:37.458Z,10.49
2022-12-28T20:26:04.043Z,10.50
2022-12-28T20:28:30.679Z,10.57
2022-12-28T20:31:01.527Z,10.68
2022-12-28T20:33:28.773Z,10.71
2022-12-28T20:36:05.736Z,10.64
2022-12-28T20:38:32.879Z,10.64
2022-12-28T20:41:06.813Z,10.71
2022-12-28T20:43:34.265Z,10.73
2022-12-28T20:46:01.852Z,10.77
2022-12-28T20:48:30.699Z,10.73
2022-12-28T20:51:00.836Z,10.73
2022-12-28T20:53:28.023Z,10.74
2022-12-28T20:55:57.687Z,10.77
2022-12-28T20:58:24.346Z,10.73
2022-12-28T21:00:51.433Z,10.70
2022-12-28T21:03:18.155Z,10.69
2022-12-28T21:05:44.776Z,10.67
2022-12-28T21:08:11.331Z,10.50
2022-12-28T21:10:37.846Z,10.43
2022-12-28T21:13:04.451Z,10.50
2022-12-28T21:15:31.210Z,10.69
2022-12-28T21:17:59.343Z,10.82
2022-12-28T21:20:26.571Z,10.96
2022-12-28T21:22:53.143Z,11.03
2022-12-28T21:25:19.797Z,11.06
2022-12-28T21:27:46.321Z,11.13
2022-12-28T21:30:12.989Z,11.08
2022-12-28T21:32:39.631Z,11.08
2022-12-28T21:35:06.332Z,11.13
2022-12-28T21:37:35.861Z,11.12
2022-12-28T21:40:05.559Z,11.17
2022-12-28T21:42:32.182Z,11.20
2022-12-28T21:44:58.779Z,11.17
2022-12-28T21:47:25.418Z,11.22
2022-12-28T21:49:51.996Z,11.26
2022-12-28T21:52:18.687Z,11.27
2022-12-28T21:54:45.286Z,11.32
2022-12-28T21:57:12.098Z,11.36
2022-12-28T21:59:39.131Z,11.38
2022-12-28T22:02:31.100Z,11.42
2022-12-28T22:05:16.980Z,11.45
2022-12-28T22:07:43.607Z,11.41
2022-12-28T22:10:28.732Z,11.49
2022-12-28T22:12:55.921Z,11.56
2022-12-28T22:15:42.110Z,11.58
2022-12-28T22:18:36.574Z,11.60
2022-12-28T22:21:03.048Z,11.61
2022-12-28T22:23:34.377Z,11.65
2022-12-28T22:26:01.443Z,11.70
2022-12-28T22:28:27.893Z,11.70
2022-12-28T22:30:54.392Z,11.70
2022-12-28T22:33:20.984Z,11.68
2022-12-28T22:35:47.480Z,11.66
2022-12-28T22:38:14.039Z,11.66
2022-12-28T22:40:40.527Z,11.62
2022-12-28T22:43:07.033Z,11.60
2022-12-28T22:45:33.486Z,11.54
2022-12-28T22:48:00.169Z,11.47
2022-12-28T22:50:27.397Z,11.52
2022-12-28T22:52:55.502Z,11.56
2022-12-28T22:55:22.018Z,11.61
2022-12-28T22:57:48.486Z,11.65
2022-12-28T23:00:15.071Z,11.68
2022-12-28T23:02:43.575Z,11.85
2022-12-28T23:05:10.327Z,11.86
2022-12-28T23:07:38.577Z,11.81
2022-12-28T23:10:06.166Z,11.80
2022-12-28T23:12:32.698Z,11.83
2022-12-28T23:15:19.656Z,11.88
2022-12-28T23:17:47.653Z,11.83
2022-12-28T23:20:32.965Z,11.91
2022-12-28T23:23:18.331Z,11.88
2022-12-28T23:26:03.511Z,11.91
2022-12-28T23:28:30.021Z,11.92
2022-12-28T23:30:56.866Z,11.88
2022-12-28T23:33:23.875Z,11.85
2022-12-28T23:35:50.642Z,11.78
2022-12-28T23:38:17.393Z,11.82
2022-12-28T23:40:43.872Z,11.89
2022-12-28T23:43:11.063Z,11.88
2022-12-28T23:45:37.599Z,11.95
2022-12-28T23:48:04.675Z,12.01
2022-12-28T23:50:31.196Z,12.11
2022-12-28T23:52:57.720Z,12.17
2022-12-28T23:55:24.191Z,12.23
2022-12-28T23:57:50.728Z,12.28
